Time;durP1;ratioP1;P1;durP2;ratioP2;P2;SDS_P1;SDS_P2;PMS_P1;PMS_P2;Temp;Humidity;BMP_temperature;BMP_pressure;BME280_temperature;BME280_humidity;BME280_pressure;Samples;Min_cycle;Max_cycle;Signal;HPM_P1;HPM_P2
2023/05/18 00:01:11;;;;;;;7.72;2.17;;;8.70;99.90;;;;;;5049384;28;20045;-71
2023/05/18 00:03:37;;;;;;;6.88;2.00;;;8.70;99.90;;;;;;5068796;28;20045;-71
2023/05/18 00:06:05;;;;;;;6.53;1.63;;;8.70;99.90;;;;;;5048814;28;20029;-71
2023/05/18 00:08:34;;;;;;;7.28;2.22;;;8.60;99.90;;;;;;5052738;28;20048;-71
2023/05/18 00:11:05;;;;;;;7.97;2.03;;;8.60;99.90;;;;;;5038487;28;20037;-71
2023/05/18 00:13:30;;;;;;;8.13;1.88;;;8.60;99.90;;;;;;5024473;28;20514;-71
2023/05/18 00:15:56;;;;;;;6.30;1.80;;;8.50;99.90;;;;;;5069253;28;20051;-71
2023/05/18 00:18:23;;;;;;;9.35;2.00;;;8.50;99.90;;;;;;5052766;28;20416;-71
2023/05/18 00:20:57;;;;;;;8.43;2.10;;;8.50;99.90;;;;;;5051763;28;20390;-71
2023/05/18 00:23:31;;;;;;;6.63;2.15;;;8.50;99.90;;;;;;5067690;28;20033;-72
2023/05/18 00:25:58;;;;;;;6.65;1.98;;;8.40;99.90;;;;;;5069303;28;20086;-72
2023/05/18 00:28:24;;;;;;;7.90;2.38;;;8.40;99.90;;;;;;5052355;28;20037;-71
2023/05/18 00:30:50;;;;;;;6.03;1.80;;;8.40;99.90;;;;;;5035350;28;20041;-71
2023/05/18 00:33:15;;;;;;;6.88;1.85;;;8.40;99.90;;;;;;5039593;28;20497;-72
2023/05/18 00:35:41;;;;;;;5.88;2.00;;;8.40;99.90;;;;;;5052320;28;20541;-72
2023/05/18 00:38:07;;;;;;;7.07;1.77;;;8.40;99.90;;;;;;5032355;28;20049;-72
2023/05/18 00:40:33;;;;;;;7.63;1.92;;;8.50;99.90;;;;;;5049422;28;20072;-72
2023/05/18 00:42:59;;;;;;;9.60;1.95;;;8.40;99.90;;;;;;5033543;28;20486;-72
2023/05/18 00:45:25;;;;;;;7.32;2.10;;;8.40;99.90;;;;;;5032139;28;20045;-72
2023/05/18 00:47:51;;;;;;;8.18;1.77;;;8.30;99.90;;;;;;5041156;28;20033;-71
2023/05/18 00:50:17;;;;;;;6.10;1.83;;;8.20;99.90;;;;;;5033599;28;20092;-72
2023/05/18 00:52:44;;;;;;;10.45;2.20;;;8.20;99.90;;;;;;5031991;28;20053;-71
2023/05/18 00:55:11;;;;;;;9.23;2.15;;;8.20;99.90;;;;;;5033102;28;20049;-71
2023/05/18 00:57:40;;;;;;;4.82;2.03;;;8.10;99.90;;;;;;5045517;28;20041;-72
2023/05/18 01:00:09;;;;;;;8.27;1.98;;;8.00;99.90;;;;;;5068047;28;20083;-71
2023/05/18 01:02:41;;;;;;;8.38;2.33;;;8.10;99.90;;;;;;5050810;28;20049;-71
2023/05/18 01:05:07;;;;;;;6.82;1.83;;;8.10;99.90;;;;;;5053271;28;20048;-72
2023/05/18 01:07:33;;;;;;;5.95;1.90;;;8.10;99.90;;;;;;5050970;28;20493;-72
2023/05/18 01:09:59;;;;;;;7.18;1.90;;;8.10;99.90;;;;;;5042344;28;20032;-71
2023/05/18 01:12:31;;;;;;;7.60;1.80;;;8.10;99.90;;;;;;5032728;28;20037;-71
2023/05/18 01:15:08;;;;;;;8.27;1.88;;;8.10;99.90;;;;;;5033095;28;20041;-72
2023/05/18 01:18:13;;;;;;;6.10;1.90;;;8.00;99.90;;;;;;5031809;28;20099;-71
2023/05/18 01:20:56;;;;;;;6.40;2.08;;;8.10;99.90;;;;;;5019617;28;20061;-72
2023/05/18 01:23:57;;;;;;;7.13;1.80;;;8.20;99.90;;;;;;5051832;28;20437;-71
2023/05/18 01:26:30;;;;;;;9.95;2.10;;;8.00;99.90;;;;;;5040493;28;20047;-71
2023/05/18 01:28:58;;;;;;;7.25;2.10;;;8.00;99.90;;;;;;5032010;28;20379;-71
2023/05/18 01:31:25;;;;;;;5.25;1.80;;;8.00;99.90;;;;;;5039507;28;20055;-71
2023/05/18 01:33:51;;;;;;;8.00;2.00;;;8.10;99.90;;;;;;5068251;28;20044;-71
2023/05/18 01:36:17;;;;;;;5.43;1.50;;;8.10;99.90;;;;;;5049345;28;20040;-72
2023/05/18 01:38:44;;;;;;;6.88;1.90;;;8.10;99.90;;;;;;5032960;28;20493;-71
2023/05/18 01:41:17;;;;;;;6.25;1.77;;;8.20;99.90;;;;;;5034327;28;20045;-72
2023/05/18 01:44:08;;;;;;;8.23;1.92;;;8.10;99.90;;;;;;5032545;28;20046;-72
2023/05/18 01:46:39;;;;;;;10.13;2.42;;;8.20;99.90;;;;;;5048486;28;20076;-71
2023/05/18 01:49:15;;;;;;;7.47;2.10;;;8.10;99.90;;;;;;5014960;28;20077;-72
2023/05/18 01:51:45;;;;;;;7.97;2.30;;;8.10;99.90;;;;;;5032477;28;20041;-72
2023/05/18 01:54:14;;;;;;;7.40;2.30;;;8.10;99.90;;;;;;5032685;28;20099;-72
2023/05/18 01:56:40;;;;;;;7.03;1.77;;;8.20;99.90;;;;;;5048098;28;20545;-71
2023/05/18 01:59:06;;;;;;;9.18;2.33;;;8.20;99.90;;;;;;5031018;28;20518;-71
2023/05/18 02:01:32;;;;;;;5.40;2.20;;;8.30;99.90;;;;;;5031087;28;20042;-72
2023/05/18 02:03:58;;;;;;;6.68;1.85;;;8.30;99.90;;;;;;5047981;28;20049;-71
2023/05/18 02:06:23;;;;;;;8.10;2.10;;;8.30;99.90;;;;;;5032725;28;20038;-72
2023/05/18 02:08:50;;;;;;;7.55;2.30;;;8.30;99.90;;;;;;5033213;28;20046;-72
2023/05/18 02:11:15;;;;;;;6.93;2.00;;;8.20;99.90;;;;;;5033879;28;20041;-72
2023/05/18 02:13:41;;;;;;;7.00;1.95;;;8.30;99.90;;;;;;5051641;28;20049;-71
2023/05/18 02:16:07;;;;;;;8.68;2.85;;;8.30;99.90;;;;;;5035796;28;20417;-71
2023/05/18 02:18:33;;;;;;;6.93;2.03;;;8.30;99.90;;;;;;5034940;28;20041;-71
2023/05/18 02:20:59;;;;;;;7.53;2.20;;;8.30;99.90;;;;;;5036201;28;20092;-71
2023/05/18 02:23:25;;;;;;;5.68;1.60;;;8.30;99.90;;;;;;5036006;28;20052;-71
2023/05/18 02:25:54;;;;;;;5.95;1.98;;;8.30;99.90;;;;;;5035154;28;20044;-71
2023/05/18 02:28:20;;;;;;;8.13;2.13;;;8.30;99.90;;;;;;5018591;28;20064;-72
2023/05/18 02:30:46;;;;;;;8.35;2.15;;;8.30;99.90;;;;;;5018467;28;20050;-71
2023/05/18 02:33:11;;;;;;;7.45;2.05;;;8.40;99.90;;;;;;5034673;28;20604;-71
2023/05/18 02:35:37;;;;;;;7.57;1.88;;;8.30;99.90;;;;;;5047753;28;20060;-71
2023/05/18 02:38:03;;;;;;;7.53;2.35;;;8.30;99.90;;;;;;5051636;28;20047;-72
2023/05/18 02:40:28;;;;;;;7.38;1.88;;;8.20;99.90;;;;;;5052979;28;20088;-71
2023/05/18 02:42:54;;;;;;;7.22;2.08;;;8.20;99.90;;;;;;5058204;28;20043;-71
2023/05/18 02:45:20;;;;;;;9.20;2.35;;;8.30;99.90;;;;;;5021747;28;20144;-71
2023/05/18 02:47:46;;;;;;;7.30;2.17;;;8.30;99.90;;;;;;5033835;28;20071;-71
2023/05/18 02:50:11;;;;;;;7.28;1.92;;;8.30;99.90;;;;;;5050033;28;20037;-71
2023/05/18 02:52:38;;;;;;;7.20;2.00;;;8.30;99.90;;;;;;5066861;28;20098;-71
2023/05/18 02:55:04;;;;;;;6.65;2.10;;;8.30;99.90;;;;;;5052266;28;20041;-71
2023/05/18 02:57:31;;;;;;;8.95;2.35;;;8.30;99.90;;;;;;5051036;28;20393;-71
2023/05/18 02:59:57;;;;;;;8.05;1.95;;;8.30;99.90;;;;;;5041229;28;20071;-71
2023/05/18 03:02:23;;;;;;;6.55;2.10;;;8.30;99.90;;;;;;5053201;28;20045;-70
2023/05/18 03:04:56;;;;;;;7.70;2.22;;;8.30;99.90;;;;;;5051507;28;20107;-71
2023/05/18 03:07:26;;;;;;;7.65;2.33;;;8.30;99.90;;;;;;5047336;28;20041;-71
2023/05/18 03:09:52;;;;;;;9.07;2.55;;;8.30;99.90;;;;;;5038978;28;20390;-71
2023/05/18 03:12:17;;;;;;;7.10;2.13;;;8.30;99.90;;;;;;5051208;28;20098;-71
2023/05/18 03:14:43;;;;;;;8.38;2.28;;;8.30;99.90;;;;;;5038426;28;20041;-72
2023/05/18 03:17:09;;;;;;;6.25;2.20;;;8.30;99.90;;;;;;5046793;28;20069;-71
2023/05/18 03:19:34;;;;;;;7.85;2.00;;;8.30;99.90;;;;;;5068225;28;20489;-71
2023/05/18 03:22:00;;;;;;;7.50;2.22;;;8.30;99.90;;;;;;5051780;28;20045;-71
2023/05/18 03:24:29;;;;;;;7.57;2.30;;;8.40;99.90;;;;;;5051120;28;20437;-71
2023/05/18 03:26:55;;;;;;;4.78;2.00;;;8.40;99.90;;;;;;5053606;28;20045;-71
2023/05/18 03:29:22;;;;;;;6.13;1.80;;;8.40;99.90;;;;;;5050191;28;20490;-71
2023/05/18 03:31:47;;;;;;;10.48;2.00;;;8.40;99.90;;;;;;5034870;28;20052;-71
2023/05/18 03:34:13;;;;;;;9.32;2.42;;;8.40;99.90;;;;;;5043073;28;20541;-71
2023/05/18 03:36:41;;;;;;;7.57;2.20;;;8.50;99.90;;;;;;5036680;28;20083;-71
2023/05/18 03:39:07;;;;;;;5.88;1.98;;;8.50;99.90;;;;;;5050647;28;20037;-71
2023/05/18 03:41:33;;;;;;;6.60;1.88;;;8.50;99.90;;;;;;5046373;28;20123;-71
2023/05/18 03:43:58;;;;;;;10.65;2.40;;;8.50;99.90;;;;;;5052388;28;20128;-71
2023/05/18 03:46:24;;;;;;;7.03;2.42;;;8.50;99.90;;;;;;5049444;28;20041;-71
2023/05/18 03:48:52;;;;;;;9.77;2.00;;;8.60;99.90;;;;;;5052606;28;20029;-71
2023/05/18 03:51:18;;;;;;;6.57;1.85;;;8.60;99.90;;;;;;5049000;28;20102;-71
2023/05/18 03:53:44;;;;;;;6.50;2.13;;;8.60;99.90;;;;;;5038975;28;20103;-70
2023/05/18 03:56:12;;;;;;;7.70;1.90;;;8.60;99.90;;;;;;5051067;28;20045;-71
2023/05/18 03:58:38;;;;;;;7.93;2.30;;;8.60;99.90;;;;;;5053118;28;20443;-71
2023/05/18 04:01:04;;;;;;;9.00;2.33;;;8.50;99.90;;;;;;5068069;28;20041;-70
2023/05/18 04:03:30;;;;;;;6.20;2.00;;;8.40;99.90;;;;;;5034526;28;20087;-71
2023/05/18 04:05:55;;;;;;;5.93;2.08;;;8.40;99.90;;;;;;5051417;28;20087;-71
2023/05/18 04:08:24;;;;;;;6.57;2.00;;;8.40;99.90;;;;;;5050850;28;20485;-71
2023/05/18 04:10:50;;;;;;;8.63;2.22;;;8.40;99.90;;;;;;5032017;28;20045;-71
2023/05/18 04:13:16;;;;;;;4.68;1.95;;;8.30;99.90;;;;;;5033553;28;20559;-71
2023/05/18 04:15:42;;;;;;;5.60;2.10;;;8.30;99.90;;;;;;5042807;28;20116;-71
2023/05/18 04:18:09;;;;;;;6.20;2.08;;;8.30;99.90;;;;;;5067286;28;20094;-71
2023/05/18 04:20:36;;;;;;;4.75;2.08;;;8.40;99.90;;;;;;5036382;28;20041;-71
2023/05/18 04:23:04;;;;;;;6.88;1.92;;;8.40;99.90;;;;;;5048262;28;20037;-72
2023/05/18 04:25:29;;;;;;;7.85;2.15;;;8.40;99.90;;;;;;5060452;28;20055;-71
2023/05/18 04:27:56;;;;;;;8.40;2.00;;;8.40;99.90;;;;;;5047848;28;20037;-71
2023/05/18 04:30:22;;;;;;;7.07;2.35;;;8.50;99.90;;;;;;5051788;28;20033;-72
2023/05/18 04:32:48;;;;;;;9.95;2.85;;;8.50;99.90;;;;;;5067105;28;20037;-72
2023/05/18 04:35:15;;;;;;;5.07;1.88;;;8.40;99.90;;;;;;5045884;28;20046;-72
2023/05/18 04:37:41;;;;;;;9.15;2.45;;;8.40;99.90;;;;;;5033482;28;20040;-72
2023/05/18 04:40:12;;;;;;;5.95;2.22;;;8.40;99.90;;;;;;5036423;28;20128;-72
2023/05/18 04:42:44;;;;;;;9.05;2.42;;;8.50;99.90;;;;;;5049882;28;20033;-72
2023/05/18 04:45:11;;;;;;;8.05;2.10;;;8.50;99.90;;;;;;5049747;28;20043;-72
2023/05/18 04:47:37;;;;;;;9.20;2.10;;;8.60;99.90;;;;;;5046598;28;20045;-72
2023/05/18 04:50:04;;;;;;;7.95;2.60;;;8.60;99.90;;;;;;5068379;28;20035;-72
2023/05/18 04:52:30;;;;;;;9.05;2.30;;;8.60;99.90;;;;;;5036357;28;20053;-72
2023/05/18 04:54:56;;;;;;;6.13;2.10;;;8.60;99.90;;;;;;5058343;28;20048;-72
2023/05/18 04:57:21;;;;;;;7.28;2.22;;;8.70;99.90;;;;;;5047163;28;20043;-71
2023/05/18 04:59:47;;;;;;;7.35;2.10;;;8.70;99.90;;;;;;5068591;28;20135;-72
2023/05/18 05:02:13;;;;;;;7.25;2.15;;;8.70;99.90;;;;;;5040478;28;20095;-72
2023/05/18 05:04:39;;;;;;;7.85;1.80;;;8.80;99.90;;;;;;5033212;28;20033;-72
2023/05/18 05:07:04;;;;;;;8.95;2.60;;;8.80;99.90;;;;;;5049062;28;20500;-72
2023/05/18 05:09:30;;;;;;;8.90;2.03;;;8.70;99.90;;;;;;5031519;28;20048;-72
2023/05/18 05:11:56;;;;;;;9.20;2.17;;;8.80;99.90;;;;;;5038164;28;20116;-72
2023/05/18 05:14:21;;;;;;;8.35;1.75;;;8.80;99.90;;;;;;5052961;28;20075;-72
2023/05/18 05:16:47;;;;;;;8.85;2.10;;;8.80;99.90;;;;;;5040815;28;20056;-72
2023/05/18 05:19:12;;;;;;;8.65;2.28;;;8.80;99.90;;;;;;5027963;28;20077;-72
2023/05/18 05:21:39;;;;;;;8.95;2.20;;;8.80;99.90;;;;;;5018839;28;20040;-71
2023/05/18 05:24:06;;;;;;;7.68;2.22;;;8.80;99.90;;;;;;5053819;28;20127;-72
2023/05/18 05:26:32;;;;;;;8.95;2.20;;;8.80;99.90;;;;;;5032810;28;20055;-72
2023/05/18 05:28:58;;;;;;;10.07;1.90;;;8.80;99.90;;;;;;5052825;28;20409;-72
2023/05/18 05:31:23;;;;;;;7.40;2.00;;;8.90;99.90;;;;;;5047282;28;20124;-72
2023/05/18 05:33:49;;;;;;;8.48;2.00;;;8.90;99.90;;;;;;5050648;28;20053;-71
2023/05/18 05:36:14;;;;;;;8.73;2.15;;;8.90;99.90;;;;;;5044879;28;20056;-72
2023/05/18 05:38:41;;;;;;;4.97;1.80;;;8.80;99.90;;;;;;5051170;28;20083;-71
2023/05/18 05:41:06;;;;;;;9.40;2.30;;;8.90;99.90;;;;;;5052793;28;20045;-72
2023/05/18 05:43:32;;;;;;;6.82;1.90;;;8.90;99.90;;;;;;5049019;28;20036;-72
2023/05/18 05:45:57;;;;;;;9.13;2.08;;;8.90;99.90;;;;;;5054197;28;20037;-72
2023/05/18 05:48:23;;;;;;;9.15;2.28;;;9.00;99.90;;;;;;5045313;28;20043;-72
2023/05/18 05:50:49;;;;;;;8.07;2.00;;;9.00;99.90;;;;;;5060441;28;20110;-72
2023/05/18 05:53:16;;;;;;;6.82;2.13;;;9.00;99.90;;;;;;5053482;28;20541;-72
2023/05/18 05:55:42;;;;;;;7.05;1.92;;;9.00;99.90;;;;;;5053585;28;20059;-72
2023/05/18 05:58:09;;;;;;;7.93;1.77;;;9.10;99.90;;;;;;5053534;28;20564;-72
2023/05/18 06:00:35;;;;;;;8.80;2.10;;;9.10;99.90;;;;;;5049728;28;20122;-73
2023/05/18 06:03:01;;;;;;;9.35;2.20;;;9.10;99.90;;;;;;5045688;28;20045;-73
2023/05/18 06:05:27;;;;;;;8.10;1.83;;;9.20;99.90;;;;;;5052499;28;20087;-73
2023/05/18 06:07:54;;;;;;;8.38;1.98;;;9.20;99.90;;;;;;5039793;28;20374;-73
2023/05/18 06:10:19;;;;;;;6.35;2.05;;;9.30;99.90;;;;;;5041065;28;20392;-73
2023/05/18 06:12:45;;;;;;;10.15;2.28;;;9.40;99.90;;;;;;5055121;28;20025;-73
2023/05/18 06:15:11;;;;;;;9.60;2.05;;;9.40;99.90;;;;;;5053259;28;20504;-73
2023/05/18 06:17:37;;;;;;;7.43;1.85;;;9.30;99.90;;;;;;5066042;28;20076;-73
2023/05/18 06:20:05;;;;;;;10.68;2.72;;;9.40;99.90;;;;;;5069873;28;20045;-73
2023/05/18 06:22:31;;;;;;;7.97;2.20;;;9.50;99.90;;;;;;5065767;28;20037;-70
2023/05/18 06:24:57;;;;;;;8.43;2.00;;;9.50;99.90;;;;;;5053646;28;20049;-71
2023/05/18 06:27:23;;;;;;;7.78;2.15;;;9.50;99.90;;;;;;5045876;28;20112;-70
2023/05/18 06:29:48;;;;;;;9.27;2.10;;;9.60;99.90;;;;;;5037795;28;20041;-71
2023/05/18 06:32:14;;;;;;;7.60;1.65;;;9.60;99.90;;;;;;5051933;28;20419;-71
2023/05/18 06:34:41;;;;;;;6.03;1.77;;;9.70;99.90;;;;;;5054799;28;20116;-72
2023/05/18 06:37:06;;;;;;;7.80;2.35;;;9.70;99.90;;;;;;5054846;28;20053;-71
2023/05/18 06:39:32;;;;;;;10.48;2.35;;;9.70;99.90;;;;;;5053841;28;20551;-72
2023/05/18 06:41:58;;;;;;;8.55;2.05;;;9.70;99.90;;;;;;5034473;28;20555;-71
2023/05/18 06:44:23;;;;;;;8.73;1.90;;;9.80;99.90;;;;;;5051308;28;20038;-72
2023/05/18 06:46:49;;;;;;;5.30;2.10;;;10.00;99.90;;;;;;5035912;28;20045;-72
2023/05/18 06:49:15;;;;;;;6.97;1.90;;;10.00;99.90;;;;;;5031444;28;20069;-73
2023/05/18 06:51:42;;;;;;;6.55;1.80;;;10.00;99.90;;;;;;5043844;28;20049;-76
2023/05/18 06:54:08;;;;;;;9.32;2.22;;;10.10;99.90;;;;;;5025522;28;20049;-71
2023/05/18 06:56:33;;;;;;;8.77;2.35;;;10.20;99.90;;;;;;5016413;28;20045;-71
2023/05/18 06:59:00;;;;;;;7.22;2.05;;;10.20;99.90;;;;;;5048712;28;20132;-72
2023/05/18 07:01:26;;;;;;;10.10;2.03;;;10.10;99.90;;;;;;5053036;28;20132;-72
2023/05/18 07:03:51;;;;;;;8.93;2.30;;;10.20;99.90;;;;;;5045341;28;20041;-71
2023/05/18 07:06:17;;;;;;;10.13;1.95;;;10.20;99.90;;;;;;5051763;28;20570;-72
2023/05/18 07:08:43;;;;;;;8.35;1.83;;;10.30;99.90;;;;;;5053944;28;20048;-71
2023/05/18 07:11:09;;;;;;;7.22;1.98;;;10.30;99.90;;;;;;5043626;28;20041;-72
2023/05/18 07:13:34;;;;;;;8.60;2.40;;;10.30;99.90;;;;;;5043201;28;20139;-72
2023/05/18 07:16:00;;;;;;;7.05;2.03;;;10.40;99.90;;;;;;5051794;28;20037;-72
2023/05/18 07:18:26;;;;;;;11.65;2.30;;;10.40;99.90;;;;;;5053034;28;20045;-72
2023/05/18 07:20:57;;;;;;;8.45;2.17;;;10.50;99.90;;;;;;5053598;28;20051;-72
2023/05/18 07:23:22;;;;;;;7.80;2.10;;;10.40;99.90;;;;;;5045474;28;20091;-72
2023/05/18 07:25:48;;;;;;;5.88;1.70;;;10.50;99.90;;;;;;5032800;28;20049;-73
2023/05/18 07:28:14;;;;;;;8.23;2.20;;;10.60;99.90;;;;;;5039973;28;20033;-71
2023/05/18 07:30:39;;;;;;;6.63;2.00;;;10.70;99.90;;;;;;5053771;28;20456;-72
2023/05/18 07:33:05;;;;;;;6.82;2.00;;;10.80;99.90;;;;;;5033379;28;20087;-71
2023/05/18 07:35:31;;;;;;;6.20;2.05;;;10.90;99.90;;;;;;5062288;28;20041;-84
2023/05/18 07:37:57;;;;;;;10.98;1.98;;;11.10;99.90;;;;;;5069639;28;20501;-81
2023/05/18 07:40:22;;;;;;;7.38;1.60;;;11.20;99.90;;;;;;5055052;28;20041;-82
2023/05/18 07:42:48;;;;;;;7.18;1.85;;;11.00;99.90;;;;;;5048639;28;20048;-82
2023/05/18 07:45:14;;;;;;;8.40;2.33;;;11.20;99.90;;;;;;5053210;28;20037;-84
2023/05/18 07:47:39;;;;;;;6.93;2.00;;;11.10;99.90;;;;;;5034046;28;20080;-73
2023/05/18 07:50:05;;;;;;;7.78;1.98;;;11.10;99.90;;;;;;5053076;28;20116;-73
2023/05/18 07:52:31;;;;;;;8.07;1.95;;;11.10;99.90;;;;;;5049256;28;20429;-72
2023/05/18 07:54:57;;;;;;;5.93;2.10;;;11.10;99.90;;;;;;5038301;28;20053;-71
2023/05/18 07:57:23;;;;;;;8.10;2.33;;;11.10;99.90;;;;;;5034171;28;20034;-70
2023/05/18 07:59:49;;;;;;;9.80;2.10;;;11.10;99.90;;;;;;5050608;28;20049;-70
2023/05/18 08:02:21;;;;;;;8.40;2.20;;;11.10;99.90;;;;;;5039156;28;20049;-70
2023/05/18 08:04:47;;;;;;;7.78;1.98;;;11.00;99.90;;;;;;5032815;28;20054;-70
2023/05/18 08:07:13;;;;;;;7.57;2.67;;;11.00;99.90;;;;;;5032409;28;20508;-70
2023/05/18 08:09:38;;;;;;;6.68;1.70;;;11.00;99.90;;;;;;5051333;28;20377;-71
2023/05/18 08:12:05;;;;;;;8.70;2.00;;;11.10;99.90;;;;;;5053343;28;20043;-70
2023/05/18 08:14:30;;;;;;;6.03;1.73;;;11.20;99.90;;;;;;5050722;28;20044;-70
2023/05/18 08:16:56;;;;;;;9.23;1.85;;;11.20;99.90;;;;;;5052030;28;20135;-70
2023/05/18 08:19:22;;;;;;;6.78;1.70;;;11.20;99.90;;;;;;5050962;28;20104;-70
2023/05/18 08:21:47;;;;;;;8.20;1.85;;;11.20;99.90;;;;;;5049232;28;20744;-70
2023/05/18 08:24:13;;;;;;;7.38;2.10;;;11.40;99.90;;;;;;5032845;28;20049;-70
2023/05/18 08:26:38;;;;;;;9.32;1.80;;;11.30;99.90;;;;;;5052082;28;20047;-70
2023/05/18 08:29:08;;;;;;;7.47;2.28;;;11.40;99.90;;;;;;5052246;28;20486;-71
2023/05/18 08:31:38;;;;;;;9.02;2.08;;;11.40;99.90;;;;;;5068988;28;20041;-71
2023/05/18 08:34:04;;;;;;;3.40;1.70;;;11.70;99.90;;;;;;5050545;28;20045;-71
2023/05/18 08:36:32;;;;;;;7.18;1.95;;;11.90;99.90;;;;;;5038940;28;20115;-71
2023/05/18 08:38:58;;;;;;;8.00;1.90;;;12.10;99.90;;;;;;5052547;28;20044;-71
2023/05/18 08:41:57;;;;;;;8.25;1.92;;;12.20;99.90;;;;;;5063289;28;20037;-71
2023/05/18 08:44:29;;;;;;;7.03;2.28;;;12.30;99.90;;;;;;5035100;28;20095;-71
2023/05/18 08:46:55;;;;;;;;;;;12.40;99.90;;;;;;5047002;28;20128;-71
2023/05/18 08:49:20;;;;;;;11.45;2.28;;;12.50;99.90;;;;;;5047892;28;19991;-71
2023/05/18 08:51:59;;;;;;;7.30;2.15;;;12.40;99.90;;;;;;5035691;28;20215;-71
2023/05/18 08:54:25;;;;;;;9.02;2.70;;;12.40;99.90;;;;;;5032136;28;20501;-76
2023/05/18 08:56:52;;;;;;;6.30;2.00;;;12.50;99.90;;;;;;5033405;28;20083;-77
2023/05/18 08:59:22;;;;;;;7.57;1.85;;;12.60;99.90;;;;;;5020366;28;20511;-76
2023/05/18 09:01:49;;;;;;;9.40;2.25;;;12.70;99.90;;;;;;5049789;28;20040;-75
2023/05/18 09:04:15;;;;;;;7.00;2.15;;;12.80;99.90;;;;;;5039542;28;20038;-75
2023/05/18 09:06:41;;;;;;;9.20;1.83;;;12.90;99.90;;;;;;5017800;28;20095;-74
2023/05/18 09:09:08;;;;;;;7.93;1.73;;;13.00;99.90;;;;;;5033148;28;20050;-74
2023/05/18 09:11:34;;;;;;;8.13;1.70;;;13.00;99.90;;;;;;5032158;28;20116;-74
2023/05/18 09:14:00;;;;;;;8.27;2.00;;;13.10;99.90;;;;;;5032613;28;20049;-74
2023/05/18 09:16:26;;;;;;;7.93;2.50;;;13.20;99.90;;;;;;5035663;28;20045;-74
2023/05/18 09:18:52;;;;;;;8.55;1.88;;;13.20;99.90;;;;;;5062819;28;20497;-74
2023/05/18 09:21:18;;;;;;;8.80;2.05;;;13.30;99.90;;;;;;5051445;28;20101;-74
2023/05/18 09:23:44;;;;;;;7.63;1.90;;;13.40;99.90;;;;;;5048039;28;20041;-74
2023/05/18 09:26:11;;;;;;;8.70;1.90;;;13.40;99.90;;;;;;5043470;28;20047;-74
2023/05/18 09:28:42;;;;;;;8.02;2.65;;;13.30;99.90;;;;;;5032919;28;20501;-75
2023/05/18 09:31:17;;;;;;;6.55;1.88;;;13.30;99.90;;;;;;5045520;28;20505;-75
2023/05/18 09:33:45;;;;;;;8.02;2.00;;;13.40;99.90;;;;;;5051586;28;20490;-70
2023/05/18 09:36:11;;;;;;;7.30;1.80;;;13.40;99.90;;;;;;5050632;28;20801;-73
2023/05/18 09:38:41;;;;;;;6.05;1.65;;;13.20;99.90;;;;;;5052216;28;20048;-74
2023/05/18 09:41:13;;;;;;;10.52;2.05;;;13.30;99.90;;;;;;5049868;28;20071;-74
2023/05/18 09:43:39;;;;;;;7.68;1.98;;;13.60;99.90;;;;;;5052823;28;20037;-74
2023/05/18 09:46:07;;;;;;;8.95;2.17;;;13.40;99.90;;;;;;5044648;28;20040;-74
2023/05/18 09:48:35;;;;;;;6.18;1.77;;;13.50;99.90;;;;;;5034919;28;20045;-74
2023/05/18 09:51:01;;;;;;;8.23;1.70;;;13.60;99.90;;;;;;5068474;28;20041;-74
2023/05/18 09:53:27;;;;;;;8.15;1.80;;;13.40;99.90;;;;;;5045539;28;20531;-74
2023/05/18 09:55:52;;;;;;;5.50;2.63;;;13.50;99.90;;;;;;5036052;28;20049;-74
2023/05/18 09:58:18;;;;;;;7.57;1.83;;;13.50;99.90;;;;;;5061761;28;20056;-74
2023/05/18 10:00:52;;;;;;;5.43;1.60;;;13.40;99.90;;;;;;5040095;28;20079;-74
2023/05/18 10:03:23;;;;;;;7.40;2.22;;;13.50;99.90;;;;;;5050582;28;20040;-74
2023/05/18 10:05:49;;;;;;;5.57;1.88;;;13.60;99.90;;;;;;5044105;28;20042;-74
2023/05/18 10:08:15;;;;;;;8.13;2.40;;;13.60;99.90;;;;;;5048856;28;20047;-75
2023/05/18 10:10:44;;;;;;;6.78;1.95;;;13.50;99.90;;;;;;5049121;28;20041;-74
2023/05/18 10:13:16;;;;;;;9.88;2.38;;;13.40;99.90;;;;;;5052434;28;20037;-74
2023/05/18 10:16:03;;;;;;;7.28;1.95;;;13.50;99.90;;;;;;5034561;28;20123;-74
2023/05/18 10:18:39;;;;;;;5.13;1.80;;;13.70;99.90;;;;;;5047127;28;20520;-74
2023/05/18 10:21:08;;;;;;;8.05;2.17;;;13.50;99.90;;;;;;5037310;28;20052;-74
2023/05/18 10:23:35;;;;;;;9.10;2.20;;;13.80;99.90;;;;;;5044056;28;20052;-74
2023/05/18 10:26:05;;;;;;;8.60;2.15;;;13.60;99.90;;;;;;5052286;28;20502;-83
2023/05/18 10:28:42;;;;;;;6.35;2.05;;;13.80;99.90;;;;;;5067884;28;20048;-82
2023/05/18 10:31:08;;;;;;;6.00;2.03;;;13.80;99.90;;;;;;5049634;28;20154;-82
2023/05/18 10:33:35;;;;;;;8.40;2.35;;;13.80;99.90;;;;;;5068891;28;20484;-83
2023/05/18 10:36:03;;;;;;;7.75;2.30;;;13.80;99.90;;;;;;5029465;28;20405;-83
2023/05/18 10:38:30;;;;;;;5.40;1.52;;;14.00;99.90;;;;;;5051600;28;20504;-83
2023/05/18 10:40:59;;;;;;;7.10;1.60;;;14.10;99.90;;;;;;5054602;28;20060;-83
2023/05/18 10:43:26;;;;;;;8.23;2.00;;;13.90;99.90;;;;;;5053287;28;20489;-83
2023/05/18 10:45:54;;;;;;;7.45;1.75;;;13.80;99.90;;;;;;5035995;28;20405;-82
2023/05/18 10:48:21;;;;;;;8.30;2.15;;;13.80;99.90;;;;;;5018098;28;20038;-83
2023/05/18 10:50:48;;;;;;;6.50;1.90;;;13.70;99.90;;;;;;5051370;28;20388;-83
2023/05/18 10:53:18;;;;;;;8.38;2.25;;;13.60;99.90;;;;;;5035759;28;25103;-83
2023/05/18 10:55:44;;;;;;;5.68;2.15;;;13.60;99.90;;;;;;5053558;28;20044;-82
2023/05/18 10:58:13;;;;;;;5.30;2.10;;;13.70;99.90;;;;;;5054234;28;20374;-82
2023/05/18 11:00:41;;;;;;;7.30;1.90;;;13.80;99.90;;;;;;5053086;28;20089;-82
2023/05/18 11:03:12;;;;;;;8.43;2.70;;;13.80;99.90;;;;;;5053438;28;20624;-83
2023/05/18 11:05:38;;;;;;;6.05;1.98;;;13.70;99.90;;;;;;5050372;28;20036;-76
2023/05/18 11:08:04;;;;;;;7.25;2.28;;;13.80;99.90;;;;;;5055336;28;20444;-80
2023/05/18 11:10:48;;;;;;;8.38;2.10;;;13.90;99.90;;;;;;5049663;28;20124;-82
2023/05/18 11:13:14;;;;;;;8.05;2.03;;;14.00;99.90;;;;;;5053997;28;20036;-81
2023/05/18 11:15:52;;;;;;;9.00;2.00;;;13.80;99.90;;;;;;5054308;28;20206;-73
2023/05/18 11:18:18;;;;;;;7.55;2.10;;;13.90;99.90;;;;;;5052387;28;20178;-74
2023/05/18 11:20:47;;;;;;;7.00;2.28;;;14.10;99.90;;;;;;5037188;28;20504;-73
2023/05/18 11:23:19;;;;;;;6.68;2.10;;;14.20;99.90;;;;;;5035056;28;20041;-74
2023/05/18 11:25:47;;;;;;;;;;;14.20;99.90;;;;;;5023281;28;20509;-73
2023/05/18 11:28:13;;;;;;;7.97;2.08;;;14.10;99.90;;;;;;5070382;28;19923;-73
2023/05/18 11:30:39;;;;;;;8.68;1.95;;;14.30;99.90;;;;;;5038505;28;20045;-73
2023/05/18 11:33:23;;;;;;;5.10;1.60;;;14.20;99.90;;;;;;5033723;28;20179;-74
2023/05/18 11:36:10;;;;;;;9.63;2.30;;;14.20;99.90;;;;;;5034815;28;20057;-73
2023/05/18 11:38:45;;;;;;;7.05;2.13;;;14.10;99.90;;;;;;5033922;28;20129;-73
2023/05/18 11:41:34;;;;;;;4.50;1.77;;;14.20;99.90;;;;;;5048239;28;20049;-74
2023/05/18 11:44:16;;;;;;;8.10;2.22;;;14.50;99.90;;;;;;5051157;28;20140;-74
2023/05/18 11:46:51;;;;;;;8.20;2.05;;;14.70;99.90;;;;;;5039162;28;20040;-73
2023/05/18 11:49:18;;;;;;;9.98;2.67;;;14.60;99.90;;;;;;5050308;28;20615;-73
2023/05/18 11:52:04;;;;;;;7.57;1.60;;;14.60;98.50;;;;;;5039056;28;20128;-74
2023/05/18 11:54:54;;;;;;;6.93;2.25;;;14.70;99.60;;;;;;5040558;28;20084;-73
2023/05/18 11:57:46;;;;;;;6.50;1.90;;;14.60;99.90;;;;;;5032772;28;20061;-73
2023/05/18 12:00:14;;;;;;;6.03;1.80;;;14.70;99.90;;;;;;5028046;28;20053;-74
2023/05/18 12:02:44;;;;;;;7.60;2.20;;;14.70;99.90;;;;;;5039305;28;20385;-74
2023/05/18 12:05:11;;;;;;;11.50;2.85;;;14.70;99.90;;;;;;5066711;28;20401;-74
2023/05/18 12:07:38;;;;;;;7.60;2.25;;;14.90;99.90;;;;;;5052895;28;20116;-74
2023/05/18 12:10:13;;;;;;;8.65;2.10;;;15.00;99.90;;;;;;5049289;28;20040;-74
2023/05/18 12:12:39;;;;;;;7.78;2.20;;;15.10;99.90;;;;;;5054182;28;20033;-74
2023/05/18 12:15:07;;;;;;;9.30;2.70;;;15.10;99.10;;;;;;5052249;28;20044;-74
2023/05/18 12:17:49;;;;;;;7.93;1.92;;;15.10;99.90;;;;;;5052618;28;20041;-73
2023/05/18 12:20:26;;;;;;;9.23;2.63;;;15.20;99.90;;;;;;5052972;28;20045;-71
2023/05/18 12:22:53;;;;;;;8.43;2.47;;;15.20;99.90;;;;;;5052268;28;20810;-71
2023/05/18 12:25:22;;;;;;;6.65;2.20;;;15.30;99.90;;;;;;5049979;28;20048;-71
2023/05/18 12:27:48;;;;;;;12.23;2.97;;;15.40;99.90;;;;;;5033200;28;20517;-71
2023/05/18 12:30:25;;;;;;;9.45;2.22;;;15.30;99.30;;;;;;5046396;28;20041;-71
2023/05/18 12:32:53;;;;;;;7.72;2.30;;;15.10;99.90;;;;;;5050176;28;20035;-71
2023/05/18 12:35:26;;;;;;;6.57;2.00;;;15.10;99.90;;;;;;5053635;28;20091;-74
2023/05/18 12:37:56;;;;;;;7.35;2.10;;;15.00;99.90;;;;;;5048943;28;20402;-73
2023/05/18 12:40:22;;;;;;;8.68;2.50;;;15.00;99.90;;;;;;5052385;28;20545;-73
2023/05/18 12:42:52;;;;;;;7.03;1.98;;;15.00;99.40;;;;;;5049717;28;20057;-72
2023/05/18 12:45:18;;;;;;;7.78;2.80;;;15.10;99.90;;;;;;5045775;28;20049;-72
2023/05/18 12:47:44;;;;;;;6.70;2.22;;;15.10;99.90;;;;;;5046657;28;20033;-72
2023/05/18 12:50:10;;;;;;;7.18;2.50;;;15.00;99.90;;;;;;5053467;28;20040;-72
2023/05/18 12:52:36;;;;;;;8.30;2.40;;;15.10;99.90;;;;;;5060209;28;20053;-72
2023/05/18 12:55:03;;;;;;;6.82;2.13;;;15.10;99.90;;;;;;5033994;28;20072;-70
2023/05/18 12:57:32;;;;;;;7.07;2.10;;;15.20;99.90;;;;;;5032098;28;20049;-70